createdAt,value
2022-08-24T00:00:39.623Z,52.88
2022-08-24T00:03:11.772Z,53.42
2022-08-24T00:05:39.367Z,54.02
2022-08-24T00:08:06.891Z,55.22
2022-08-24T00:10:35.844Z,54.12
2022-08-24T00:13:03.374Z,52.94
2022-08-24T00:15:30.968Z,52.17
2022-08-24T00:17:58.612Z,55.94
2022-08-24T00:20:26.680Z,55.76
2022-08-24T00:22:54.371Z,54.08
2022-08-24T00:25:22.099Z,55.14
2022-08-24T00:27:51.114Z,55.18
2022-08-24T00:30:20.530Z,54.19
2022-08-24T00:32:49.336Z,52.85
2022-08-24T00:35:19.858Z,55.61
2022-08-24T00:37:48.703Z,55.29
2022-08-24T00:40:21.993Z,57.90
2022-08-24T00:42:51.644Z,57.35
2022-08-24T00:45:20.644Z,57.53
2022-08-24T00:47:55.134Z,54.33
2022-08-24T00:50:26.071Z,54.52
2022-08-24T00:52:58.312Z,54.32
2022-08-24T00:55:31.789Z,53.11
2022-08-24T00:58:04.799Z,52.91
2022-08-24T01:00:37.697Z,54.59
2022-08-24T01:03:06.902Z,54.99
2022-08-24T01:05:36.352Z,53.93
2022-08-24T01:08:06.849Z,57.14
2022-08-24T01:10:39.112Z,54.58
2022-08-24T01:13:09.871Z,53.77
2022-08-24T01:15:39.550Z,53.46
2022-08-24T01:18:27.112Z,52.80
2022-08-24T01:21:07.494Z,52.21
2022-08-24T01:23:40.453Z,53.03
2022-08-24T01:26:09.998Z,51.57
2022-08-24T01:28:41.155Z,51.71
2022-08-24T01:31:09.218Z,51.56
2022-08-24T01:33:36.822Z,52.24
2022-08-24T01:36:10.859Z,53.59
2022-08-24T01:38:39.716Z,53.03
2022-08-24T01:41:07.282Z,51.83
2022-08-24T01:43:37.445Z,52.95
2022-08-24T01:46:05.368Z,52.19
2022-08-24T01:48:32.970Z,52.12
2022-08-24T01:51:00.659Z,52.11
2022-08-24T01:53:28.543Z,52.31
2022-08-24T01:55:57.391Z,52.35
2022-08-24T01:58:25.035Z,52.25
2022-08-24T02:00:52.630Z,52.91
2022-08-24T02:03:20.538Z,52.84
2022-08-24T02:05:55.114Z,53.12
2022-08-24T02:08:22.606Z,53.15
2022-08-24T02:10:56.548Z,53.26
2022-08-24T02:13:28.691Z,53.44
2022-08-24T02:15:56.336Z,53.47
2022-08-24T02:18:23.894Z,53.58
2022-08-24T02:20:51.563Z,53.70
2022-08-24T02:23:20.336Z,53.69
2022-08-24T02:25:48.319Z,53.67
2022-08-24T02:28:15.858Z,53.87
2022-08-24T02:30:44.822Z,54.39
2022-08-24T02:33:12.929Z,54.22
2022-08-24T02:35:41.108Z,56.05
2022-08-24T02:38:09.072Z,59.72
2022-08-24T02:40:37.396Z,56.93
2022-08-24T02:43:05.910Z,56.54
2022-08-24T02:45:33.659Z,55.11
2022-08-24T02:48:02.495Z,54.80
2022-08-24T02:50:29.997Z,55.18
2022-08-24T02:52:57.590Z,54.93
2022-08-24T02:55:25.508Z,54.85
2022-08-24T02:57:53.074Z,55.16
2022-08-24T03:00:22.316Z,55.36
2022-08-24T03:02:50.084Z,55.46
2022-08-24T03:05:18.996Z,55.35
2022-08-24T03:07:46.607Z,55.60
2022-08-24T03:10:14.953Z,55.54
2022-08-24T03:12:42.466Z,56.06
2022-08-24T03:15:12.032Z,56.34
2022-08-24T03:17:41.038Z,56.72
2022-08-24T03:20:16.751Z,56.51
2022-08-24T03:22:46.250Z,56.71
2022-08-24T03:25:15.038Z,56.94
2022-08-24T03:27:43.432Z,56.88
2022-08-24T03:30:13.944Z,57.22
2022-08-24T03:32:42.152Z,57.30
2022-08-24T03:35:11.284Z,57.38
2022-08-24T03:37:39.758Z,57.59
2022-08-24T03:40:23.167Z,57.69
2022-08-24T03:42:52.880Z,57.71
2022-08-24T03:45:21.509Z,57.91
2022-08-24T03:47:49.193Z,57.96
2022-08-24T03:50:16.779Z,58.04
2022-08-24T03:52:44.310Z,58.55
2022-08-24T03:55:13.761Z,57.90
2022-08-24T03:57:41.427Z,57.77
2022-08-24T04:00:12.230Z,57.94
2022-08-24T04:02:39.770Z,57.77
2022-08-24T04:05:08.209Z,58.13
2022-08-24T04:07:35.702Z,60.58
2022-08-24T04:10:03.324Z,60.79
2022-08-24T04:12:32.289Z,58.59
2022-08-24T04:14:59.791Z,58.50
2022-08-24T04:17:27.455Z,58.55
2022-08-24T04:20:01.036Z,58.77
2022-08-24T04:22:30.940Z,59.29
2022-08-24T04:24:58.908Z,59.54
2022-08-24T04:27:26.582Z,59.94
2022-08-24T04:29:55.465Z,60.20
2022-08-24T04:32:23.047Z,60.17
2022-08-24T04:34:50.645Z,60.46
2022-08-24T04:37:18.403Z,60.69
2022-08-24T04:39:54.088Z,60.52
2022-08-24T04:42:21.706Z,60.54
2022-08-24T04:44:50.387Z,60.81
2022-08-24T04:47:19.288Z,60.96
2022-08-24T04:49:46.982Z,60.90
2022-08-24T04:52:14.883Z,61.01
2022-08-24T04:54:42.481Z,61.07
2022-08-24T04:57:11.702Z,61.01
2022-08-24T04:59:43.859Z,61.04
2022-08-24T05:02:11.635Z,61.06
2022-08-24T05:04:40.584Z,60.92
2022-08-24T05:07:08.307Z,61.06
2022-08-24T05:09:35.838Z,60.99
2022-08-24T05:12:03.850Z,61.38
2022-08-24T05:14:31.745Z,63.13
2022-08-24T05:16:59.245Z,64.22
2022-08-24T05:19:26.796Z,64.40
2022-08-24T05:21:56.094Z,63.58
2022-08-24T05:24:23.595Z,61.46
2022-08-24T05:26:53.134Z,62.11
2022-08-24T05:29:21.472Z,61.71
2022-08-24T05:31:49.085Z,61.44
2022-08-24T05:34:16.648Z,61.29
2022-08-24T05:36:44.617Z,61.26
2022-08-24T05:39:15.254Z,61.33
2022-08-24T05:41:44.711Z,61.19
2022-08-24T05:44:13.559Z,61.12
2022-08-24T05:46:41.576Z,64.23
2022-08-24T05:49:09.205Z,63.72
2022-08-24T05:51:37.079Z,63.32
2022-08-24T05:54:05.115Z,64.35
2022-08-24T05:56:34.105Z,63.97
2022-08-24T05:59:02.174Z,64.35
2022-08-24T06:01:30.142Z,64.71
2022-08-24T06:03:58.076Z,63.18
2022-08-24T06:06:26.591Z,62.73
2022-08-24T06:08:56.542Z,61.21
2022-08-24T06:11:30.313Z,61.49
2022-08-24T06:14:02.848Z,61.99
2022-08-24T06:16:36.396Z,63.42
2022-08-24T06:19:04.911Z,61.82
2022-08-24T06:21:32.781Z,61.42
2022-08-24T06:24:00.677Z,61.47
2022-08-24T06:26:50.198Z,61.42
2022-08-24T06:29:20.166Z,61.03
2022-08-24T06:31:54.284Z,60.65
2022-08-24T06:34:23.687Z,60.48
2022-08-24T06:36:51.563Z,60.17
2022-08-24T06:39:19.772Z,61.43
2022-08-24T06:41:47.314Z,60.41
2022-08-24T06:44:14.838Z,59.95
2022-08-24T06:46:43.759Z,60.47
2022-08-24T06:49:11.776Z,60.17
2022-08-24T06:51:39.335Z,59.43
2022-08-24T06:54:06.991Z,60.70
2022-08-24T06:56:36.467Z,60.71
2022-08-24T06:59:04.575Z,59.50
2022-08-24T07:01:32.489Z,60.97
2022-08-24T07:04:01.649Z,59.54
2022-08-24T07:06:29.579Z,58.57
2022-08-24T07:08:57.365Z,57.89
2022-08-24T07:11:25.496Z,57.66
2022-08-24T07:13:53.122Z,58.03
2022-08-24T07:16:22.239Z,57.57
2022-08-24T07:18:50.830Z,57.61
2022-08-24T07:21:20.259Z,56.64
2022-08-24T07:23:48.499Z,55.95
2022-08-24T07:26:21.365Z,55.70
2022-08-24T07:28:50.304Z,55.29
2022-08-24T07:31:17.967Z,54.86
2022-08-24T07:33:45.830Z,54.51
2022-08-24T07:36:22.232Z,54.16
2022-08-24T07:38:53.144Z,53.16
2022-08-24T07:41:47.188Z,52.73
2022-08-24T07:44:09.747Z,52.48
2022-08-24T07:46:37.757Z,52.39
2022-08-24T07:49:12.520Z,51.75
2022-08-24T07:51:48.492Z,51.78
2022-08-24T07:54:17.414Z,51.51
2022-08-24T07:56:44.952Z,51.32
2022-08-24T07:59:13.632Z,51.21
2022-08-24T08:01:41.708Z,50.29
2022-08-24T08:16:25.293Z,49.01
2022-08-24T09:13:11.747Z,40.02
2022-08-24T09:15:41.654Z,40.36
2022-08-24T09:18:34.077Z,39.48
2022-08-24T09:27:59.555Z,39.38
2022-08-24T09:33:28.448Z,37.42
2022-08-24T09:36:08.726Z,36.13
2022-08-24T09:38:57.249Z,36.35
2022-08-24T09:41:53.027Z,35.71
2022-08-24T09:44:55.530Z,35.98
2022-08-24T09:48:02.349Z,36.10
2022-08-24T10:00:55.105Z,35.59
2022-08-24T10:24:17.405Z,33.28
2022-08-24T10:30:23.708Z,34.11
2022-08-24T10:33:12.208Z,33.50
2022-08-24T10:35:56.226Z,33.59
2022-08-24T10:38:59.436Z,33.94
2022-08-24T10:41:57.381Z,33.95
2022-08-24T10:44:43.437Z,34.68
2022-08-24T10:47:19.381Z,35.00
2022-08-24T10:50:20.852Z,34.45
2022-08-24T10:53:10.070Z,34.78
2022-08-24T10:55:38.290Z,34.96
2022-08-24T10:58:28.684Z,35.57
2022-08-24T11:00:56.864Z,35.27
2022-08-24T11:03:28.383Z,35.56
2022-08-24T11:05:59.950Z,35.63
2022-08-24T11:08:29.833Z,36.04
2022-08-24T11:11:12.710Z,36.52
2022-08-24T11:13:53.425Z,37.31
2022-08-24T11:16:27.300Z,37.07
2022-08-24T11:18:57.396Z,37.88
2022-08-24T11:21:48.993Z,38.16
2022-08-24T11:24:30.486Z,37.63
2022-08-24T11:27:03.824Z,37.95
2022-08-24T11:29:59.376Z,37.59
2022-08-24T11:32:34.563Z,37.11
2022-08-24T11:35:04.413Z,36.85
2022-08-24T11:37:34.733Z,36.62
2022-08-24T11:40:04.744Z,37.07
2022-08-24T11:42:43.867Z,37.18
2022-08-24T11:45:17.217Z,36.88
2022-08-24T11:48:03.324Z,36.32
2022-08-24T11:50:40.434Z,36.31
2022-08-24T11:53:21.869Z,36.65
2022-08-24T11:56:01.733Z,35.39
2022-08-24T11:58:41.799Z,36.20
2022-08-24T12:01:18.736Z,36.24
2022-08-24T12:04:01.187Z,36.28
2022-08-24T12:06:44.450Z,36.38
2022-08-24T12:09:24.420Z,36.31
2022-08-24T12:12:00.247Z,36.25
2022-08-24T12:14:34.936Z,36.47
2022-08-24T12:17:13.927Z,36.75
2022-08-24T12:19:47.408Z,37.22
2022-08-24T12:22:16.789Z,37.05
2022-08-24T12:24:47.957Z,36.86
2022-08-24T12:27:23.471Z,36.75
2022-08-24T12:29:57.955Z,37.20
2022-08-24T12:32:34.651Z,37.09
2022-08-24T12:35:07.232Z,37.80
2022-08-24T12:37:39.191Z,37.35
2022-08-24T12:40:11.269Z,37.54
2022-08-24T12:42:47.554Z,37.56
2022-08-24T12:45:19.701Z,37.41
2022-08-24T12:47:55.668Z,36.93
2022-08-24T12:50:41.004Z,36.78
2022-08-24T12:53:26.460Z,37.05
2022-08-24T12:56:44.237Z,37.00
2022-08-24T12:59:19.413Z,36.52
2022-08-24T13:02:02.164Z,36.49
2022-08-24T13:04:41.943Z,36.10
2022-08-24T13:07:29.604Z,36.84
2022-08-24T13:10:11.958Z,37.05
2022-08-24T13:12:56.960Z,37.40
2022-08-24T13:15:58.911Z,37.41
2022-08-24T13:19:10.748Z,37.64
2022-08-24T13:21:44.839Z,37.62
2022-08-24T13:24:50.277Z,37.85
2022-08-24T13:27:50.554Z,38.01
2022-08-24T13:30:27.096Z,37.33
2022-08-24T13:33:03.248Z,36.98
2022-08-24T13:35:36.632Z,36.82
2022-08-24T13:38:34.268Z,36.64
2022-08-24T13:41:06.684Z,37.67
2022-08-24T13:43:39.313Z,37.95
2022-08-24T13:46:20.947Z,37.29
2022-08-24T13:48:56.298Z,36.91
2022-08-24T13:51:39.692Z,37.23
2022-08-24T13:54:23.196Z,37.76
2022-08-24T13:57:06.016Z,37.59
2022-08-24T13:59:54.399Z,38.14
2022-08-24T14:02:32.831Z,38.66
2022-08-24T14:05:12.886Z,39.04
2022-08-24T14:07:53.173Z,38.82
2022-08-24T14:10:39.134Z,40.08
2022-08-24T14:13:27.715Z,38.70
2022-08-24T14:16:14.487Z,39.74
2022-08-24T14:18:58.989Z,38.29
2022-08-24T14:21:50.127Z,38.65
2022-08-24T14:24:43.839Z,38.56
2022-08-24T14:34:18.630Z,40.37
2022-08-24T14:36:56.908Z,40.27
2022-08-24T14:39:37.226Z,40.07
2022-08-24T14:42:16.880Z,40.71
2022-08-24T14:58:56.960Z,40.77
2022-08-24T15:01:40.555Z,40.91
2022-08-24T15:04:30.778Z,40.68
2022-08-24T15:07:27.877Z,40.70
2022-08-24T15:09:57.852Z,40.77
2022-08-24T15:12:39.159Z,40.25
2022-08-24T15:15:15.331Z,39.79
2022-08-24T15:17:54.384Z,40.20
2022-08-24T15:20:34.042Z,40.68
2022-08-24T15:23:08.796Z,40.82
2022-08-24T15:25:43.774Z,40.72
2022-08-24T15:28:15.312Z,40.57
2022-08-24T15:30:55.847Z,40.93
2022-08-24T15:33:23.978Z,41.36
2022-08-24T15:36:04.312Z,41.57
2022-08-24T15:38:35.396Z,41.45
2022-08-24T15:41:08.457Z,41.23
2022-08-24T15:43:42.320Z,41.42
2022-08-24T15:46:10.671Z,41.85
2022-08-24T15:48:39.088Z,41.77
2022-08-24T15:51:06.939Z,41.84
2022-08-24T15:53:37.905Z,41.28
2022-08-24T15:56:35.744Z,40.43
2022-08-24T15:59:10.982Z,41.36
2022-08-24T16:01:56.789Z,41.79
2022-08-24T16:04:44.945Z,41.29
2022-08-24T16:07:25.628Z,41.30
2022-08-24T16:10:04.739Z,41.52
2022-08-24T16:12:32.806Z,41.60
2022-08-24T16:15:15.719Z,41.09
2022-08-24T16:17:51.336Z,40.90
2022-08-24T16:20:32.751Z,41.15
2022-08-24T16:23:03.101Z,41.13
2022-08-24T16:25:32.741Z,41.12
2022-08-24T16:28:07.608Z,41.24
2022-08-24T16:30:51.999Z,40.89
2022-08-24T16:33:53.469Z,41.53
2022-08-24T16:36:20.999Z,41.04
2022-08-24T16:38:50.858Z,40.46
2022-08-24T16:41:21.157Z,40.31
2022-08-24T16:43:49.356Z,40.57
2022-08-24T16:46:23.042Z,40.71
2022-08-24T16:48:52.040Z,40.28
2022-08-24T16:51:19.597Z,40.41
2022-08-24T16:53:47.084Z,40.61
2022-08-24T16:56:16.814Z,41.05
2022-08-24T16:58:47.198Z,41.18
2022-08-24T17:01:15.582Z,41.32
2022-08-24T17:03:44.719Z,41.42
2022-08-24T17:06:13.164Z,41.45
2022-08-24T17:08:40.997Z,42.00
2022-08-24T17:11:08.626Z,41.88
2022-08-24T17:13:51.580Z,41.90
2022-08-24T17:16:20.245Z,41.94
2022-08-24T17:18:49.608Z,41.98
2022-08-24T17:21:17.322Z,42.12
2022-08-24T17:23:45.007Z,42.38
2022-08-24T17:26:20.677Z,42.27
2022-08-24T17:28:51.583Z,42.42
2022-08-24T17:31:19.191Z,42.42
2022-08-24T17:33:46.787Z,42.71
2022-08-24T17:36:17.683Z,42.96
2022-08-24T17:38:52.921Z,42.93
2022-08-24T17:41:23.734Z,43.20
2022-08-24T17:43:51.435Z,43.23
2022-08-24T17:46:20.479Z,43.15
2022-08-24T17:48:48.563Z,43.76
2022-08-24T17:51:17.597Z,43.42
2022-08-24T17:53:45.448Z,43.75
2022-08-24T17:56:14.087Z,43.36
2022-08-24T17:58:56.403Z,43.51
2022-08-24T18:01:24.132Z,43.93
2022-08-24T18:03:51.768Z,43.81
2022-08-24T18:06:23.726Z,44.06
2022-08-24T18:08:52.688Z,44.07
2022-08-24T18:11:25.266Z,44.20
2022-08-24T18:13:54.379Z,44.45
2022-08-24T18:16:24.243Z,44.68
2022-08-24T18:18:53.567Z,44.91
2022-08-24T18:21:22.882Z,44.93
2022-08-24T18:23:51.152Z,45.08
2022-08-24T18:26:25.149Z,45.22
2022-08-24T18:28:57.005Z,45.55
2022-08-24T18:31:27.567Z,45.64
2022-08-24T18:33:55.371Z,45.75
2022-08-24T18:36:24.215Z,45.75
2022-08-24T18:38:51.737Z,45.87
2022-08-24T18:41:19.322Z,46.13
2022-08-24T18:43:47.376Z,46.07
2022-08-24T18:46:15.084Z,46.42
2022-08-24T18:48:42.689Z,46.18
2022-08-24T18:51:11.363Z,46.59
2022-08-24T18:53:40.325Z,46.66
2022-08-24T18:56:12.511Z,46.78
2022-08-24T18:58:40.635Z,46.84
2022-08-24T19:01:08.536Z,46.90
2022-08-24T19:03:36.214Z,47.53
2022-08-24T19:06:03.748Z,47.29
2022-08-24T19:08:31.328Z,47.40
2022-08-24T19:11:00.384Z,47.41
2022-08-24T19:13:28.280Z,47.55
2022-08-24T19:15:55.825Z,47.96
2022-08-24T19:18:23.864Z,48.30
2022-08-24T19:20:53.718Z,48.08
2022-08-24T19:23:23.553Z,48.19
2022-08-24T19:25:51.949Z,48.17
2022-08-24T19:28:21.535Z,48.31
2022-08-24T19:30:49.656Z,48.52
2022-08-24T19:33:29.282Z,48.69
2022-08-24T19:35:56.841Z,48.47
2022-08-24T19:38:26.170Z,49.00
2022-08-24T19:40:54.597Z,48.86
2022-08-24T19:43:25.465Z,49.96
2022-08-24T19:46:06.337Z,49.16
2022-08-24T19:48:36.312Z,49.32
2022-08-24T19:51:05.399Z,49.68
2022-08-24T19:53:34.963Z,49.47
2022-08-24T19:56:03.628Z,49.82
2022-08-24T19:58:40.383Z,49.97
2022-08-24T20:01:12.182Z,50.21
2022-08-24T20:03:39.859Z,50.26
2022-08-24T20:06:07.730Z,50.57
2022-08-24T20:08:35.294Z,50.66
2022-08-24T20:11:03.029Z,51.29
2022-08-24T20:13:30.576Z,51.01
2022-08-24T20:15:59.944Z,50.97
2022-08-24T20:18:31.535Z,51.52
2022-08-24T20:20:59.761Z,51.44
2022-08-24T20:23:27.787Z,51.48
2022-08-24T20:25:56.409Z,51.44
2022-08-24T20:28:29.171Z,52.11
2022-08-24T20:30:58.629Z,51.55
2022-08-24T20:33:27.938Z,52.77
2022-08-24T20:35:56.563Z,52.09
2022-08-24T20:38:25.263Z,52.30
2022-08-24T20:40:56.855Z,52.43
2022-08-24T20:43:24.381Z,53.22
2022-08-24T20:45:52.891Z,52.28
2022-08-24T20:48:28.214Z,53.11
2022-08-24T20:50:55.966Z,53.30
2022-08-24T20:53:23.484Z,52.32
2022-08-24T20:55:51.250Z,53.14
2022-08-24T20:58:21.972Z,52.95
2022-08-24T21:00:49.768Z,53.18
2022-08-24T21:03:18.765Z,52.81
2022-08-24T21:05:52.259Z,53.06
2022-08-24T21:08:20.166Z,53.22
2022-08-24T21:10:48.404Z,53.74
2022-08-24T21:13:16.031Z,53.62
2022-08-24T21:15:43.698Z,54.78
2022-08-24T21:18:11.724Z,54.73
2022-08-24T21:20:42.644Z,54.37
2022-08-24T21:23:19.582Z,53.79
2022-08-24T21:25:47.622Z,53.76
2022-08-24T21:28:18.647Z,54.28
2022-08-24T21:30:46.204Z,55.49
2022-08-24T21:33:30.937Z,55.04
2022-08-24T21:35:59.316Z,55.86
2022-08-24T21:38:29.790Z,54.65
2022-08-24T21:40:58.018Z,54.23
2022-08-24T21:43:25.604Z,54.24
2022-08-24T21:45:54.531Z,55.94
2022-08-24T21:48:22.071Z,56.28
2022-08-24T21:50:49.596Z,55.10
2022-08-24T21:53:17.733Z,54.73
2022-08-24T21:55:46.884Z,55.39
2022-08-24T21:58:14.370Z,54.98
2022-08-24T22:00:41.900Z,54.60
2022-08-24T22:03:10.011Z,55.93
2022-08-24T22:05:37.892Z,55.65
2022-08-24T22:08:05.494Z,54.99
2022-08-24T22:10:33.072Z,55.43
2022-08-24T22:13:04.382Z,55.37
2022-08-24T22:15:32.747Z,55.38
2022-08-24T22:18:01.240Z,55.73
2022-08-24T22:20:28.901Z,55.55
2022-08-24T22:22:58.121Z,55.65
2022-08-24T22:25:25.975Z,55.78
2022-08-24T22:27:53.507Z,56.04
2022-08-24T22:30:22.648Z,55.83
2022-08-24T22:32:50.130Z,56.11
